createdAt,value
2018-06-18T00:00:21.310Z,19.67
2018-06-18T00:02:49.359Z,19.82
2018-06-18T00:05:17.460Z,19.58
2018-06-18T00:07:45.741Z,19.57
2018-06-18T00:10:13.839Z,19.58
2018-06-18T00:12:42.542Z,19.43
2018-06-18T00:15:10.594Z,19.44
2018-06-18T00:17:38.694Z,19.34
2018-06-18T00:20:06.867Z,19.18
2018-06-18T00:22:35.039Z,19.27
2018-06-18T00:25:03.483Z,19.27
2018-06-18T00:27:31.576Z,18.90
2018-06-18T00:29:59.705Z,19.09
2018-06-18T00:32:27.782Z,19.03
2018-06-18T00:34:55.898Z,19.27
2018-06-18T00:37:23.977Z,19.10
2018-06-18T00:39:52.238Z,19.22
2018-06-18T00:42:20.312Z,19.18
2018-06-18T00:44:48.354Z,19.47
2018-06-18T00:47:16.533Z,19.24
2018-06-18T00:49:44.637Z,18.97
2018-06-18T00:52:12.816Z,19.10
2018-06-18T00:54:40.877Z,19.11
2018-06-18T00:57:09.029Z,19.02
2018-06-18T00:59:37.086Z,19.01
2018-06-18T01:02:05.193Z,19.05
2018-06-18T01:04:33.260Z,19.04
2018-06-18T01:07:01.386Z,19.40
2018-06-18T01:09:29.562Z,19.35
2018-06-18T01:11:57.785Z,19.53
2018-06-18T01:14:25.854Z,18.91
2018-06-18T01:16:53.993Z,19.11
2018-06-18T01:19:22.047Z,19.08
2018-06-18T01:24:56.231Z,19.26
2018-06-18T01:27:24.474Z,19.42
2018-06-18T01:29:52.542Z,19.28
2018-06-18T01:32:20.612Z,18.87
2018-06-18T01:34:48.924Z,18.89
2018-06-18T01:37:17.011Z,19.13
2018-06-18T01:39:45.135Z,19.04
2018-06-18T01:42:13.315Z,19.06
2018-06-18T01:44:41.427Z,18.88
2018-06-18T01:47:09.690Z,18.87
2018-06-18T01:49:37.862Z,18.65
2018-06-18T01:52:05.986Z,19.21
2018-06-18T01:54:34.055Z,19.11
2018-06-18T01:57:02.145Z,18.62
2018-06-18T01:59:30.347Z,19.01
2018-06-18T02:01:58.406Z,18.60
2018-06-18T02:04:27.410Z,18.63
2018-06-18T02:06:55.502Z,18.64
2018-06-18T02:09:23.623Z,18.53
2018-06-18T02:11:51.718Z,18.71
2018-06-18T02:14:19.804Z,18.45
2018-06-18T02:16:47.910Z,18.68
2018-06-18T02:19:15.998Z,18.37
2018-06-18T02:21:45.182Z,18.70
2018-06-18T02:24:13.230Z,18.26
2018-06-18T02:26:41.327Z,18.15
2018-06-18T02:29:14.826Z,18.21
2018-06-18T02:31:48.416Z,18.78
2018-06-18T02:34:21.788Z,18.57
2018-06-18T02:36:55.221Z,18.13
2018-06-18T02:39:23.394Z,18.21
2018-06-18T02:41:51.466Z,18.33
2018-06-18T02:44:19.625Z,17.83
2018-06-18T02:46:47.749Z,17.51
2018-06-18T02:49:15.815Z,17.59
2018-06-18T02:51:44.044Z,17.74
2018-06-18T02:54:13.116Z,17.71
2018-06-18T02:56:51.094Z,17.57
2018-06-18T02:59:19.475Z,17.61
2018-06-18T03:01:47.640Z,17.35
2018-06-18T03:04:15.897Z,17.54
2018-06-18T03:06:43.947Z,18.05
2018-06-18T03:09:13.182Z,17.86
2018-06-18T03:11:41.306Z,17.92
2018-06-18T03:14:10.343Z,18.13
2018-06-18T03:16:38.426Z,17.92
2018-06-18T03:19:11.867Z,18.41
2018-06-18T03:21:45.497Z,17.91
2018-06-18T03:25:18.355Z,18.00
2018-06-18T03:27:51.719Z,17.38
2018-06-18T03:30:19.803Z,17.61
2018-06-18T03:32:48.851Z,17.79
2018-06-18T03:35:17.075Z,17.70
2018-06-18T03:37:45.126Z,17.64
2018-06-18T03:40:13.237Z,17.75
2018-06-18T03:42:41.908Z,17.49
2018-06-18T03:45:14.652Z,17.34
2018-06-18T03:47:43.206Z,17.48
2018-06-18T03:50:11.416Z,17.44
2018-06-18T03:52:39.449Z,17.27
2018-06-18T03:55:11.525Z,17.39
2018-06-18T03:57:39.680Z,17.31
2018-06-18T04:00:10.160Z,17.55
2018-06-18T04:03:04.261Z,17.28
2018-06-18T04:05:37.988Z,17.33
2018-06-18T04:08:09.587Z,17.53
2018-06-18T04:10:43.430Z,17.53
2018-06-18T04:13:11.608Z,17.33
2018-06-18T04:15:39.734Z,17.51
2018-06-18T04:18:07.890Z,17.39
2018-06-18T04:20:46.753Z,17.54
2018-06-18T04:23:14.868Z,17.33
2018-06-18T04:25:43.550Z,17.45
2018-06-18T04:28:12.003Z,17.49
2018-06-18T04:30:40.435Z,17.64
2018-06-18T04:33:08.952Z,17.81
2018-06-18T04:35:37.100Z,17.65
2018-06-18T04:38:05.214Z,17.55
2018-06-18T04:40:33.382Z,17.66
2018-06-18T04:43:07.063Z,17.59
2018-06-18T04:45:40.622Z,17.46
2018-06-18T04:48:14.094Z,17.84
2018-06-18T04:50:47.584Z,17.83
2018-06-18T04:53:15.715Z,17.78
2018-06-18T04:55:43.831Z,17.98
2018-06-18T04:58:11.996Z,17.75
2018-06-18T05:01:02.911Z,17.91
2018-06-18T05:03:30.972Z,17.90
2018-06-18T05:05:59.290Z,17.90
2018-06-18T05:08:42.318Z,17.90
2018-06-18T05:11:10.419Z,18.00
2018-06-18T05:13:38.538Z,17.80
2018-06-18T05:16:06.711Z,17.98
2018-06-18T05:18:34.924Z,18.08
2018-06-18T05:21:03.199Z,18.11
2018-06-18T05:23:31.278Z,18.24
2018-06-18T05:26:00.709Z,18.05
2018-06-18T05:28:28.932Z,18.04
2018-06-18T05:30:57.624Z,18.22
2018-06-18T05:33:25.785Z,18.47
2018-06-18T05:35:53.850Z,18.06
2018-06-18T05:38:31.939Z,18.09
2018-06-18T05:41:00.438Z,17.95
2018-06-18T05:43:29.017Z,17.92
2018-06-18T05:45:57.062Z,18.00
2018-06-18T05:48:25.198Z,18.03
2018-06-18T05:50:53.295Z,18.48
2018-06-18T05:53:21.452Z,18.63
2018-06-18T05:55:49.642Z,18.07
2018-06-18T05:58:18.072Z,17.97
2018-06-18T06:00:46.251Z,18.32
2018-06-18T06:03:14.358Z,18.49
2018-06-18T06:05:42.646Z,18.55
2018-06-18T06:08:10.958Z,18.29
2018-06-18T06:10:39.287Z,18.64
2018-06-18T06:13:08.512Z,18.54
2018-06-18T06:15:36.590Z,18.73
2018-06-18T06:18:04.911Z,18.32
2018-06-18T06:20:33.490Z,18.61
2018-06-18T06:23:01.597Z,18.99
2018-06-18T06:25:29.844Z,19.19
2018-06-18T06:27:57.931Z,19.24
2018-06-18T06:30:26.119Z,19.21
2018-06-18T06:32:54.252Z,19.03
2018-06-18T06:35:26.550Z,19.31
2018-06-18T06:37:55.615Z,18.91
2018-06-18T06:40:23.986Z,19.23
2018-06-18T06:42:52.167Z,19.50
2018-06-18T06:45:20.787Z,19.12
2018-06-18T06:47:48.934Z,18.85
2018-06-18T06:50:17.398Z,19.16
2018-06-18T06:52:45.508Z,19.58
2018-06-18T06:55:14.266Z,19.59
2018-06-18T06:57:42.326Z,19.36
2018-06-18T07:00:10.406Z,19.23
2018-06-18T07:02:38.629Z,19.20
2018-06-18T07:05:06.699Z,19.11
2018-06-18T07:07:34.904Z,19.62
2018-06-18T07:10:03.222Z,19.34
2018-06-18T07:12:31.834Z,19.84
2018-06-18T07:14:59.902Z,20.13
2018-06-18T07:17:28.558Z,20.06
2018-06-18T07:19:56.654Z,20.13
2018-06-18T07:22:24.863Z,19.99
2018-06-18T07:24:53.010Z,19.87
2018-06-18T07:27:21.078Z,19.59
2018-06-18T07:29:49.147Z,19.76
2018-06-18T07:32:17.249Z,19.88
2018-06-18T07:34:45.363Z,20.15
2018-06-18T07:37:14.267Z,20.36
2018-06-18T07:39:42.357Z,19.89
2018-06-18T07:42:10.454Z,20.20
2018-06-18T07:44:38.546Z,20.59
2018-06-18T07:47:06.775Z,20.61
2018-06-18T07:49:35.054Z,20.01
2018-06-18T07:52:03.167Z,20.43
2018-06-18T07:54:31.242Z,20.86
2018-06-18T07:56:59.525Z,20.73
2018-06-18T07:59:27.650Z,20.35
2018-06-18T08:01:55.702Z,20.89
2018-06-18T08:04:24.286Z,20.94
2018-06-18T08:06:52.536Z,21.04
2018-06-18T08:09:20.640Z,20.98
2018-06-18T08:11:48.734Z,21.10
2018-06-18T08:14:16.822Z,21.15
2018-06-18T08:16:44.882Z,21.25
2018-06-18T08:19:13.110Z,21.30
2018-06-18T08:21:41.168Z,21.05
2018-06-18T08:24:09.304Z,21.16
2018-06-18T08:26:37.423Z,21.31
2018-06-18T08:29:05.519Z,20.87
2018-06-18T08:31:33.636Z,20.92
2018-06-18T08:34:01.821Z,21.74
2018-06-18T08:36:31.573Z,21.79
2018-06-18T08:38:59.695Z,21.76
2018-06-18T08:41:27.871Z,21.60
2018-06-18T08:43:56.115Z,21.47
2018-06-18T08:46:24.218Z,21.22
2018-06-18T08:48:57.691Z,21.46
2018-06-18T08:51:31.126Z,21.56
2018-06-18T08:54:04.685Z,21.50
2018-06-18T08:56:38.079Z,21.52
2018-06-18T08:59:11.596Z,21.62
2018-06-18T09:01:41.874Z,21.11
2018-06-18T09:04:15.234Z,21.40
2018-06-18T09:06:43.526Z,21.47
2018-06-18T09:09:11.614Z,21.73
2018-06-18T09:11:39.710Z,21.68
2018-06-18T09:14:07.830Z,21.67
2018-06-18T09:16:35.991Z,21.11
2018-06-18T09:19:04.111Z,21.01
2018-06-18T09:21:32.420Z,21.38
2018-06-18T09:24:00.606Z,21.67
2018-06-18T09:26:29.450Z,21.91
2018-06-18T09:28:57.578Z,22.08
2018-06-18T09:31:25.891Z,22.09
2018-06-18T09:33:54.045Z,21.80
2018-06-18T09:36:22.114Z,22.16
2018-06-18T09:38:50.222Z,21.83
2018-06-18T09:41:18.299Z,22.01
2018-06-18T09:43:46.410Z,22.54
2018-06-18T09:46:14.944Z,22.84
2018-06-18T09:48:48.480Z,22.68
2018-06-18T09:51:21.906Z,22.78
2018-06-18T09:53:55.334Z,22.84
2018-06-18T09:56:29.428Z,22.92
2018-06-18T09:59:02.906Z,23.24
2018-06-18T10:01:32.510Z,23.07
2018-06-18T10:04:01.427Z,22.63
2018-06-18T10:06:31.014Z,22.43
2018-06-18T10:09:02.042Z,22.57
2018-06-18T10:11:30.260Z,22.83
2018-06-18T10:13:58.462Z,22.92
2018-06-18T10:16:26.692Z,22.39
2018-06-18T10:18:54.771Z,22.85
2018-06-18T10:21:22.848Z,22.94
2018-06-18T10:23:51.187Z,23.01
2018-06-18T10:26:19.379Z,23.14
2018-06-18T10:28:47.471Z,23.37
2018-06-18T10:31:15.534Z,23.56
2018-06-18T10:33:49.079Z,23.64
2018-06-18T10:36:22.592Z,23.10
2018-06-18T10:38:56.102Z,23.54
2018-06-18T10:41:29.849Z,23.46
2018-06-18T10:43:58.255Z,23.67
2018-06-18T10:46:26.441Z,24.01
2018-06-18T10:48:54.622Z,24.50
2018-06-18T10:51:22.667Z,24.78
2018-06-18T10:53:50.855Z,23.85
2018-06-18T10:56:19.002Z,23.61
2018-06-18T10:58:47.459Z,24.26
2018-06-18T11:01:21.499Z,23.97
2018-06-18T11:03:50.733Z,24.01
2018-06-18T11:06:24.046Z,24.23
2018-06-18T11:08:52.186Z,23.96
2018-06-18T11:11:20.318Z,23.83
2018-06-18T11:13:48.606Z,24.29
2018-06-18T11:16:16.811Z,24.35
2018-06-18T11:18:50.782Z,23.98
2018-06-18T11:21:24.147Z,24.38
2018-06-18T11:23:57.689Z,24.10
2018-06-18T11:26:31.243Z,24.61
2018-06-18T11:28:59.275Z,24.87
2018-06-18T11:31:27.521Z,24.25
2018-06-18T11:33:55.621Z,24.92
2018-06-18T11:36:23.688Z,25.19
2018-06-18T11:38:51.916Z,24.93
2018-06-18T11:41:20.055Z,24.64
2018-06-18T11:43:48.262Z,24.44
2018-06-18T11:46:16.357Z,24.23
2018-06-18T11:48:44.440Z,24.31
2018-06-18T11:51:12.599Z,24.33
2018-06-18T11:53:40.741Z,24.98
2018-06-18T11:56:08.845Z,24.60
2018-06-18T11:58:42.294Z,24.14
2018-06-18T12:01:15.810Z,24.40
2018-06-18T12:03:49.396Z,24.65
2018-06-18T12:06:22.864Z,24.30
2018-06-18T12:08:56.215Z,24.27
2018-06-18T12:11:24.307Z,24.78
2018-06-18T12:13:52.462Z,24.70
2018-06-18T12:16:20.651Z,24.63
2018-06-18T12:18:48.730Z,24.20
2018-06-18T12:21:16.812Z,24.54
2018-06-18T12:23:45.753Z,25.14
2018-06-18T12:26:13.890Z,24.42
2018-06-18T12:28:42.148Z,24.43
2018-06-18T12:31:10.258Z,23.82
2018-06-18T12:33:38.587Z,24.37
2018-06-18T12:36:08.189Z,24.64
2018-06-18T12:38:36.277Z,24.55
2018-06-18T12:41:04.545Z,24.62
2018-06-18T12:43:36.042Z,24.67
2018-06-18T12:46:09.559Z,24.56
2018-06-18T12:48:43.107Z,24.55
2018-06-18T12:51:16.511Z,24.24
2018-06-18T12:53:49.947Z,24.42
2018-06-18T12:56:23.427Z,24.70
2018-06-18T12:58:51.539Z,24.53
2018-06-18T13:01:20.889Z,24.64
2018-06-18T13:03:49.302Z,24.37
2018-06-18T13:06:17.508Z,24.52
2018-06-18T13:08:45.943Z,25.06
2018-06-18T13:11:14.118Z,25.00
2018-06-18T13:13:44.836Z,25.20
2018-06-18T13:16:13.023Z,25.14
2018-06-18T13:18:41.153Z,24.96
2018-06-18T13:21:09.279Z,25.18
2018-06-18T13:23:37.359Z,26.26
2018-06-18T13:26:05.479Z,27.15
2018-06-18T13:28:33.640Z,28.13
2018-06-18T13:31:01.707Z,28.15
2018-06-18T13:33:29.866Z,30.48
2018-06-18T13:35:57.949Z,30.49
2018-06-18T13:38:31.368Z,30.31
2018-06-18T13:41:05.110Z,29.08
2018-06-18T13:43:38.529Z,29.11
2018-06-18T13:46:13.375Z,28.80
2018-06-18T13:48:49.111Z,28.04
2018-06-18T13:51:17.272Z,28.23
2018-06-18T13:53:46.523Z,28.63
2018-06-18T13:56:14.920Z,29.62
2018-06-18T13:58:43.048Z,28.06
2018-06-18T14:01:12.185Z,27.11
2018-06-18T14:03:40.303Z,27.23
2018-06-18T14:06:08.455Z,27.50
2018-06-18T14:08:36.562Z,26.90
2018-06-18T14:11:04.763Z,26.20
2018-06-18T14:13:33.212Z,26.43
2018-06-18T14:16:02.622Z,26.49
2018-06-18T14:18:30.890Z,26.43
2018-06-18T14:20:59.120Z,25.83
2018-06-18T14:23:27.199Z,26.06
2018-06-18T14:25:55.438Z,25.64
2018-06-18T14:28:23.568Z,26.17
2018-06-18T14:30:57.255Z,26.36
2018-06-18T14:33:30.786Z,26.62
2018-06-18T14:36:04.150Z,26.60
2018-06-18T14:38:38.621Z,26.83
2018-06-18T14:41:07.215Z,26.19
2018-06-18T14:43:35.493Z,26.73
2018-06-18T14:46:03.742Z,27.36
2018-06-18T14:48:32.016Z,28.55
2018-06-18T14:51:00.117Z,28.48
2018-06-18T14:53:28.248Z,28.10
2018-06-18T14:56:01.805Z,26.63
2018-06-18T14:58:29.900Z,26.34
2018-06-18T15:00:58.015Z,26.19
2018-06-18T15:03:26.103Z,26.12
2018-06-18T15:05:54.249Z,25.60
2018-06-18T15:08:22.354Z,25.87
2018-06-18T15:10:53.275Z,25.51
2018-06-18T15:13:21.433Z,25.76
2018-06-18T15:15:55.048Z,25.35
2018-06-18T15:18:23.119Z,25.68
2018-06-18T15:20:52.903Z,25.19
2018-06-18T15:23:21.001Z,25.40
2018-06-18T15:25:50.666Z,26.20
2018-06-18T15:28:18.792Z,25.62
2018-06-18T15:30:48.239Z,25.61
2018-06-18T15:33:17.413Z,25.38
2018-06-18T15:35:45.523Z,25.54
2018-06-18T15:38:13.727Z,25.71
2018-06-18T15:40:42.341Z,25.77
2018-06-18T15:43:10.442Z,26.03
2018-06-18T15:45:38.746Z,25.65
2018-06-18T15:48:06.881Z,25.60
2018-06-18T15:50:34.958Z,25.51
2018-06-18T15:53:03.167Z,25.50
2018-06-18T15:55:31.340Z,25.78
2018-06-18T15:57:59.487Z,25.57
2018-06-18T16:00:27.641Z,25.38
2018-06-18T16:02:55.769Z,25.27
2018-06-18T16:05:23.903Z,25.65
2018-06-18T16:07:52.173Z,25.65
2018-06-18T16:10:20.414Z,25.78
2018-06-18T16:12:48.662Z,25.71
2018-06-18T16:15:16.961Z,24.93
2018-06-18T16:17:45.101Z,25.23
2018-06-18T16:20:13.329Z,25.01
2018-06-18T16:22:41.553Z,24.82
2018-06-18T16:25:09.624Z,25.04
2018-06-18T16:27:37.881Z,24.82
2018-06-18T16:30:06.060Z,24.85
2018-06-18T16:32:34.334Z,24.77
2018-06-18T16:35:02.518Z,24.64
2018-06-18T16:37:30.643Z,24.90
2018-06-18T16:39:59.061Z,24.69
2018-06-18T16:42:27.282Z,24.65
2018-06-18T16:44:55.402Z,24.57
2018-06-18T16:47:23.588Z,24.59
2018-06-18T16:49:51.715Z,24.86
2018-06-18T16:52:19.816Z,24.53
2018-06-18T16:54:48.063Z,24.81
2018-06-18T17:05:51.106Z,24.56
2018-06-18T17:08:19.206Z,24.38
2018-06-18T17:10:47.324Z,24.51
2018-06-18T17:13:15.398Z,24.43
2018-06-18T17:15:43.659Z,24.24
2018-06-18T17:18:11.704Z,24.30
2018-06-18T17:20:39.827Z,24.25
2018-06-18T17:23:08.043Z,24.20
2018-06-18T17:25:36.150Z,24.11
2018-06-18T17:28:04.256Z,24.06
2018-06-18T17:30:32.354Z,24.32
2018-06-18T17:33:00.419Z,24.32
2018-06-18T17:35:28.511Z,24.23
2018-06-18T17:37:56.915Z,24.36
2018-06-18T17:40:24.992Z,24.37
2018-06-18T17:42:53.378Z,24.51
2018-06-18T17:45:21.538Z,24.32
2018-06-18T17:47:49.624Z,24.26
2018-06-18T17:50:17.703Z,24.29
2018-06-18T17:52:45.802Z,23.80
2018-06-18T17:55:14.158Z,23.81
2018-06-18T17:57:42.242Z,23.91
2018-06-18T18:00:10.368Z,23.70
2018-06-18T18:02:38.577Z,23.71
2018-06-18T18:05:06.679Z,23.79
2018-06-18T18:07:34.787Z,23.91
2018-06-18T18:10:03.155Z,23.92
2018-06-18T18:12:31.333Z,23.76
2018-06-18T18:14:59.546Z,23.76
2018-06-18T18:17:27.720Z,23.79
2018-06-18T18:19:55.862Z,23.62
2018-06-18T18:22:27.660Z,23.67
2018-06-18T18:24:56.969Z,23.41
2018-06-18T18:27:26.737Z,23.34
2018-06-18T18:29:54.967Z,23.38
2018-06-18T18:32:23.075Z,23.41
2018-06-18T18:34:51.264Z,23.27
2018-06-18T18:37:19.361Z,23.22
2018-06-18T18:39:47.619Z,23.26
2018-06-18T18:42:15.782Z,23.26
2018-06-18T18:44:44.158Z,23.21
2018-06-18T18:47:12.375Z,23.25
2018-06-18T18:49:41.742Z,23.18
2018-06-18T18:52:09.997Z,23.16
2018-06-18T18:55:53.383Z,23.24
2018-06-18T18:58:48.944Z,23.24
2018-06-18T19:01:17.733Z,23.03
2018-06-18T19:03:48.061Z,23.29
2018-06-18T19:06:16.238Z,23.18
2018-06-18T19:08:44.612Z,23.04
2018-06-18T19:11:12.863Z,23.14
2018-06-18T19:13:41.144Z,23.41
2018-06-18T19:16:09.814Z,23.17
2018-06-18T19:18:39.355Z,22.99
2018-06-18T19:21:09.038Z,22.94
2018-06-18T19:23:37.625Z,23.02
2018-06-18T19:26:05.887Z,23.11
2018-06-18T19:28:36.098Z,23.11
2018-06-18T19:31:15.401Z,23.09
2018-06-18T19:33:50.076Z,23.07
2018-06-18T19:36:18.383Z,23.02
2018-06-18T19:38:46.510Z,22.95
2018-06-18T19:41:14.630Z,22.71
2018-06-18T19:43:43.039Z,23.07
2018-06-18T19:46:11.159Z,22.81
2018-06-18T19:48:46.596Z,22.75
2018-06-18T19:51:14.727Z,22.78
2018-06-18T19:53:42.850Z,22.69
2018-06-18T19:56:11.034Z,22.66
2018-06-18T19:58:39.222Z,22.50
2018-06-18T20:01:08.826Z,22.84
2018-06-18T20:03:36.931Z,22.86
2018-06-18T20:06:05.110Z,22.78
2018-06-18T20:08:33.430Z,22.89
2018-06-18T20:11:01.594Z,22.89
2018-06-18T20:13:29.684Z,22.85
2018-06-18T20:15:57.754Z,22.84
2018-06-18T20:18:25.885Z,22.77
2018-06-18T20:20:54.195Z,22.73
2018-06-18T20:23:24.236Z,22.60
2018-06-18T20:26:10.553Z,22.62
2018-06-18T20:28:38.885Z,22.51
2018-06-18T20:31:07.171Z,22.56
2018-06-18T20:33:38.019Z,22.71
2018-06-18T20:36:10.751Z,22.36
2018-06-18T20:38:38.879Z,22.44
2018-06-18T20:41:07.766Z,22.39
2018-06-18T20:43:49.876Z,22.19
2018-06-18T20:46:18.290Z,22.35
2018-06-18T20:48:46.516Z,22.29
2018-06-18T20:51:14.697Z,22.15
2018-06-18T20:53:42.811Z,22.27
2018-06-18T20:56:11.135Z,22.20
2018-06-18T20:58:39.223Z,22.16
2018-06-18T21:01:07.600Z,22.19
2018-06-18T21:03:35.685Z,22.18
2018-06-18T21:06:03.922Z,22.18
2018-06-18T21:08:32.036Z,22.23
2018-06-18T21:11:00.243Z,21.91
2018-06-18T21:13:28.502Z,22.07
2018-06-18T21:15:56.901Z,22.02
2018-06-18T21:18:25.006Z,21.90
2018-06-18T21:20:53.301Z,22.03
2018-06-18T21:23:21.399Z,22.08
2018-06-18T21:25:49.697Z,21.99
2018-06-18T21:28:18.427Z,21.88
2018-06-18T21:30:46.813Z,21.93
2018-06-18T21:33:15.449Z,22.01
2018-06-18T21:35:43.638Z,21.81
2018-06-18T21:38:11.723Z,21.84
2018-06-18T21:40:39.970Z,21.81
2018-06-18T21:43:08.139Z,21.68
2018-06-18T21:45:36.285Z,21.67
2018-06-18T21:48:04.839Z,21.71
2018-06-18T21:50:33.026Z,21.62
2018-06-18T21:53:01.182Z,21.65
2018-06-18T21:55:29.253Z,21.68
2018-06-18T21:57:58.578Z,21.66
2018-06-18T22:00:35.542Z,21.47
2018-06-18T22:03:03.626Z,21.47
2018-06-18T22:05:31.882Z,21.40
2018-06-18T22:08:00.382Z,21.42
2018-06-18T22:10:28.486Z,21.54
2018-06-18T22:12:56.806Z,21.29
2018-06-18T22:15:25.228Z,21.45
2018-06-18T22:17:53.587Z,21.32
2018-06-18T22:20:21.789Z,21.25
2018-06-18T22:22:50.197Z,21.40
2018-06-18T22:25:19.272Z,21.17
2018-06-18T22:27:47.747Z,21.30
2018-06-18T22:30:15.980Z,21.16
2018-06-18T22:32:44.144Z,21.21
2018-06-18T22:35:12.309Z,21.16
2018-06-18T22:37:40.489Z,21.20
2018-06-18T22:40:08.723Z,21.20
2018-06-18T22:42:37.278Z,21.14
2018-06-18T22:45:07.354Z,21.19
2018-06-18T22:47:35.591Z,21.15
2018-06-18T22:50:03.739Z,21.18
2018-06-18T22:52:31.923Z,21.03
2018-06-18T22:55:00.100Z,20.97
2018-06-18T22:57:28.234Z,20.85
2018-06-18T22:59:56.422Z,20.88
2018-06-18T23:02:28.226Z,20.79
2018-06-18T23:04:56.643Z,20.83
2018-06-18T23:07:24.861Z,20.89
2018-06-18T23:09:53.077Z,20.72
2018-06-18T23:12:23.220Z,20.80
2018-06-18T23:14:51.498Z,20.72
2018-06-18T23:17:19.727Z,20.74
2018-06-18T23:19:48.853Z,20.76
2018-06-18T23:22:17.105Z,20.80
2018-06-18T23:24:46.271Z,20.74
2018-06-18T23:27:14.379Z,20.77
2018-06-18T23:29:42.549Z,20.68
2018-06-18T23:32:11.445Z,20.76
2018-06-18T23:34:39.856Z,20.70
2018-06-18T23:37:08.226Z,20.76
2018-06-18T23:39:36.436Z,20.90
2018-06-18T23:42:04.771Z,20.63
2018-06-18T23:44:32.935Z,20.60
2018-06-18T23:47:01.094Z,20.76
2018-06-18T23:49:29.405Z,20.75
2018-06-18T23:51:57.885Z,20.47
2018-06-18T23:54:26.009Z,20.51
2018-06-18T23:56:54.201Z,20.58
2018-06-18T23:59:22.520Z,20.50
